Terminal Aerodrome Forecast
Issued by NWS Pittsburgh, PA

Current Version | Previous Version | Graphics & Text | Print | Product List | Glossary On
Versions: 1 2 3 4 5 6 7 8 9 10 11 12 13 14 15 16 17 18 19 20 21 22 23 24 25
576
FTUS41 KPBZ 242320
TAFPIT
TAF
KPIT 242320Z 2500/2606 31008KT P6SM BKN050
     FM250700 29004KT P6SM BKN025
     FM251000 32005KT P6SM OVC015
     FM251800 36008KT P6SM FEW200=

USA.gov is the U.S. government's official web portal to all federal, state and local government web resources and services.